Airfield :
LOGIN :

Register | Disclaimer

   EN    FR    IT 

 










Legend :    VFR   Marginal VFR   IFR   Intensive IFR   Very Intensive IFR
Visi :
Ceiling :
>= 8 km
>= 3000ft
5 to 8 km
1000 to 3000 ft
1500m to 5 km
500 to 1000 ft
800 to 1500m
200 to 500 ft
< 800m
< 200 ft
Symbols :   Thunderstorms  Fog  Heavy snow  Heavy precipitations  Wind > 20 kt
SIGMETs :     Misc.  Thunderstorms  Icing  Turbulence  Mountain Waves  Volcanic Ashes







- Airport Elevation : 466 ft


LHPA - Pápa

CURRENT METAR :
  • 211945Z 19002KT 5000 BR BKN009 OVC020 05/04 Q1019 NOSIG RMK GRN

EXPIRED METARs :
  • 211915Z 00000KT 5000 BR BKN009 OVC023 05/04 Q1019 REDZ NOSIG RMK GRN
  • 211845Z 00000KT 5000 -DZ BR BKN009 OVC020 05/04 Q1018 NOSIG RMK GRN
  • 211815Z 00000KT 5000 -DZ BR BKN009 OVC020 05/04 Q1018 NOSIG RMK GRN
  • 211745Z 00000KT 5000 -DZ BR BKN009 OVC020 05/04 Q1018 NOSIG RMK GRN
  • 211715Z 17002KT 5000 -DZ BR BKN009 OVC020 05/04 Q1018 NOSIG RMK GRN

TAF TAF LHPA
Valid from the 21 at 18:00 until the 22 at 18:00 UTC


211715Z 2118/2218 VRB03KT 5000 BR BKN010 OVC020
TEMPO 2118/2218 1500 -RA -DZ BR BKN005 OVC015
No reported NOTAMs for that airfield.



MET'MAP, your aeronautical weather chart ! - Copyright ORBIFLY December 2007 - Disclaimer

ORBIFLY MET'MAP TEAM :

Programming & Development : Alexandra Zaïnal
Concept & Development : Baudouin d'Aumeries
Co-Development & Prog : Marc-Olivier Méhu
Technical & hardware support : Manuel Goepfert

Contact : metmap@orbifly.com




SOURCES & CREDITS :

   NOAA